createdAt,value
2023-01-27T00:00:06.516Z,2.06
2023-01-27T00:00:17.323Z,2.06
2023-01-27T00:00:28.342Z,2.02
2023-01-27T00:00:39.322Z,2.06
2023-01-27T00:00:50.113Z,2.08
2023-01-27T00:01:01.138Z,2.01
2023-01-27T00:01:12.106Z,2.04
2023-01-27T00:01:22.878Z,2.06
2023-01-27T00:01:33.919Z,2.06
2023-01-27T00:01:44.885Z,2.02
2023-01-27T00:01:55.743Z,2.06
2023-01-27T00:02:06.823Z,2.09
2023-01-27T00:02:17.803Z,2.02
2023-01-27T00:02:28.566Z,2.08
2023-01-27T00:02:39.624Z,2.04
2023-01-27T00:02:50.599Z,2.02
2023-01-27T00:03:01.325Z,2.06
2023-01-27T00:03:12.392Z,1.98
2023-01-27T00:03:23.581Z,2.09
2023-01-27T00:03:34.443Z,2.08
2023-01-27T00:03:45.524Z,2.08
2023-01-27T00:03:56.548Z,2.01
2023-01-27T00:04:07.276Z,2.09
2023-01-27T00:04:18.331Z,2.10
2023-01-27T00:04:29.308Z,2.06
2023-01-27T00:04:40.094Z,2.01
2023-01-27T00:04:51.129Z,2.06
2023-01-27T00:05:02.122Z,2.04
2023-01-27T00:05:12.887Z,2.08
2023-01-27T00:05:23.946Z,2.04
2023-01-27T00:05:34.924Z,2.09
2023-01-27T00:05:45.688Z,2.12
2023-01-27T00:05:56.758Z,2.09
2023-01-27T00:06:07.714Z,2.09
2023-01-27T00:06:18.477Z,2.10
2023-01-27T00:06:29.547Z,2.09
2023-01-27T00:06:40.539Z,2.08
2023-01-27T00:06:51.370Z,2.13
2023-01-27T00:07:02.399Z,2.10
2023-01-27T00:07:13.343Z,2.10
2023-01-27T00:07:24.114Z,2.09
2023-01-27T00:07:35.163Z,2.08
2023-01-27T00:07:46.131Z,2.10
2023-01-27T00:07:56.893Z,2.08
2023-01-27T00:08:07.952Z,2.10
2023-01-27T00:08:18.913Z,2.09
2023-01-27T00:08:29.753Z,2.12
2023-01-27T00:08:40.803Z,2.10
2023-01-27T00:08:51.730Z,2.08
2023-01-27T00:09:02.513Z,2.15
2023-01-27T00:09:13.579Z,2.09
2023-01-27T00:09:24.539Z,2.10
2023-01-27T00:09:35.310Z,2.13
2023-01-27T00:09:46.385Z,2.09
2023-01-27T00:09:57.331Z,2.12
2023-01-27T00:10:08.102Z,2.13
2023-01-27T00:10:19.163Z,2.15
2023-01-27T00:10:30.120Z,2.12
2023-01-27T00:10:40.888Z,2.12
2023-01-27T00:10:51.943Z,2.13
2023-01-27T00:11:02.894Z,2.17
2023-01-27T00:11:13.657Z,2.19
2023-01-27T00:11:24.707Z,2.12
2023-01-27T00:11:35.682Z,2.15
2023-01-27T00:11:46.437Z,2.15
2023-01-27T00:11:57.482Z,2.15
2023-01-27T00:12:08.557Z,2.16
2023-01-27T00:12:19.393Z,2.23
2023-01-27T00:12:30.443Z,2.13
2023-01-27T00:12:41.414Z,2.13
2023-01-27T00:12:52.175Z,2.15
2023-01-27T00:13:03.227Z,2.13
2023-01-27T00:13:14.234Z,2.15
2023-01-27T00:13:24.982Z,2.13
2023-01-27T00:13:36.026Z,2.13
2023-01-27T00:13:47.030Z,2.19
2023-01-27T00:13:57.794Z,2.17
2023-01-27T00:14:08.812Z,2.09
2023-01-27T00:14:19.775Z,2.13
2023-01-27T00:14:30.572Z,2.12
2023-01-27T00:14:41.623Z,2.13
2023-01-27T00:14:52.595Z,2.15
2023-01-27T00:15:03.383Z,2.16
2023-01-27T00:15:14.408Z,2.19
2023-01-27T00:15:25.381Z,2.12
2023-01-27T00:15:36.199Z,2.17
2023-01-27T00:15:46.811Z,2.17
2023-01-27T00:15:57.802Z,2.15
2023-01-27T00:16:08.617Z,2.10
2023-01-27T00:16:19.188Z,2.12
2023-01-27T00:16:30.136Z,2.04
2023-01-27T00:16:40.917Z,2.15
2023-01-27T00:16:51.952Z,2.15
2023-01-27T00:17:02.934Z,2.13
2023-01-27T00:17:13.684Z,2.16
2023-01-27T00:17:24.730Z,2.12
2023-01-27T00:17:35.723Z,2.10
2023-01-27T00:17:46.484Z,2.17
2023-01-27T00:17:57.523Z,2.13
2023-01-27T00:18:08.560Z,2.09
2023-01-27T00:18:19.319Z,2.15
2023-01-27T00:18:30.367Z,2.10
2023-01-27T00:18:41.342Z,2.13
2023-01-27T00:18:52.106Z,2.09
2023-01-27T00:19:03.149Z,2.09
2023-01-27T00:19:14.124Z,2.10
2023-01-27T00:19:24.902Z,2.12
2023-01-27T00:19:35.991Z,2.10
2023-01-27T00:19:46.935Z,2.08
2023-01-27T00:19:57.701Z,2.06
2023-01-27T00:20:08.758Z,2.06
2023-01-27T00:20:19.735Z,2.08
2023-01-27T00:20:30.501Z,2.02
2023-01-27T00:20:41.565Z,2.01
2023-01-27T00:20:52.597Z,2.06
2023-01-27T00:21:03.334Z,2.09
2023-01-27T00:21:14.405Z,2.06
2023-01-27T00:21:25.388Z,2.06
2023-01-27T00:21:36.150Z,2.10
2023-01-27T00:21:47.192Z,2.04
2023-01-27T00:21:58.154Z,2.10
2023-01-27T00:22:08.944Z,2.02
2023-01-27T00:22:19.976Z,2.10
2023-01-27T00:22:30.955Z,2.08
2023-01-27T00:22:41.716Z,2.10
2023-01-27T00:22:52.772Z,2.10
2023-01-27T00:23:03.729Z,2.08
2023-01-27T00:23:14.504Z,2.13
2023-01-27T00:23:25.561Z,2.06
2023-01-27T00:23:36.518Z,2.09
2023-01-27T00:23:47.294Z,2.10
2023-01-27T00:23:58.386Z,2.06
2023-01-27T00:24:09.356Z,2.08
2023-01-27T00:24:20.187Z,2.12
2023-01-27T00:24:30.682Z,2.02
2023-01-27T00:24:41.628Z,2.10
2023-01-27T00:24:52.410Z,2.10
2023-01-27T00:25:03.465Z,2.06
2023-01-27T00:25:14.436Z,2.04
2023-01-27T00:25:25.203Z,2.12
2023-01-27T00:25:36.272Z,2.08
2023-01-27T00:25:47.227Z,2.09
2023-01-27T00:25:58.028Z,2.10
2023-01-27T00:26:09.070Z,2.10
2023-01-27T00:26:20.023Z,2.01
2023-01-27T00:26:30.782Z,2.06
2023-01-27T00:26:41.855Z,2.06
2023-01-27T00:26:52.828Z,2.09
2023-01-27T00:27:03.583Z,2.08
2023-01-27T00:27:14.613Z,2.10
2023-01-27T00:27:25.583Z,2.04
2023-01-27T00:27:36.683Z,2.09
2023-01-27T00:27:47.174Z,2.08
2023-01-27T00:27:58.142Z,2.08
2023-01-27T00:28:08.933Z,2.10
2023-01-27T00:28:19.963Z,2.06
2023-01-27T00:28:30.933Z,2.08
2023-01-27T00:28:41.703Z,2.06
2023-01-27T00:28:52.793Z,2.01
2023-01-27T00:29:03.768Z,2.08
2023-01-27T00:29:14.527Z,2.08
2023-01-27T00:29:25.547Z,2.09
2023-01-27T00:29:36.524Z,2.09
2023-01-27T00:29:47.305Z,2.09
2023-01-27T00:29:58.365Z,2.09
2023-01-27T00:30:09.347Z,2.06
2023-01-27T00:30:20.110Z,2.10
2023-01-27T00:30:31.221Z,2.08
2023-01-27T00:30:42.219Z,2.10
2023-01-27T00:30:53.076Z,2.10
2023-01-27T00:31:03.684Z,2.06
2023-01-27T00:31:14.280Z,2.10
2023-01-27T00:31:25.103Z,2.12
2023-01-27T00:31:35.823Z,2.02
2023-01-27T00:31:46.297Z,2.08
2023-01-27T00:31:57.102Z,2.08
2023-01-27T00:32:08.168Z,2.10
2023-01-27T00:32:19.120Z,2.08
2023-01-27T00:32:29.906Z,2.12
2023-01-27T00:32:40.957Z,2.06
2023-01-27T00:32:51.945Z,2.08
2023-01-27T00:33:02.701Z,2.13
2023-01-27T00:33:13.749Z,2.10
2023-01-27T00:33:24.700Z,2.09
2023-01-27T00:33:35.467Z,2.12
2023-01-27T00:33:46.509Z,2.08
2023-01-27T00:33:57.537Z,2.10
2023-01-27T00:34:08.279Z,2.12
2023-01-27T00:34:19.319Z,2.08
2023-01-27T00:34:30.278Z,2.12
2023-01-27T00:34:41.044Z,2.08
2023-01-27T00:34:52.094Z,2.15
2023-01-27T00:35:03.104Z,2.10
2023-01-27T00:35:13.864Z,2.08
2023-01-27T00:35:24.915Z,2.16
2023-01-27T00:35:35.895Z,2.09
2023-01-27T00:35:46.670Z,2.15
2023-01-27T00:35:57.707Z,2.12
2023-01-27T00:36:08.673Z,2.12
2023-01-27T00:36:19.439Z,2.09
2023-01-27T00:36:30.554Z,2.09
2023-01-27T00:36:41.511Z,2.09
2023-01-27T00:36:52.360Z,2.10
2023-01-27T00:37:03.365Z,2.10
2023-01-27T00:37:14.330Z,2.10
2023-01-27T00:37:25.141Z,2.06
2023-01-27T00:37:36.179Z,2.13
2023-01-27T00:37:47.141Z,2.13
2023-01-27T00:37:57.899Z,2.13
2023-01-27T00:38:08.951Z,2.10
2023-01-27T00:38:19.911Z,2.09
2023-01-27T00:38:30.688Z,2.12
2023-01-27T00:38:41.731Z,2.12
2023-01-27T00:38:52.865Z,2.13
2023-01-27T00:39:03.572Z,2.13
2023-01-27T00:39:14.655Z,2.09
2023-01-27T00:39:25.688Z,2.10
2023-01-27T00:39:36.404Z,2.10
2023-01-27T00:39:47.457Z,2.08
2023-01-27T00:39:58.408Z,2.12
2023-01-27T00:40:09.181Z,2.12
2023-01-27T00:40:20.285Z,2.12
2023-01-27T00:40:31.201Z,2.09
2023-01-27T00:40:41.978Z,2.12
2023-01-27T00:40:53.023Z,2.10
2023-01-27T00:41:03.986Z,2.10
2023-01-27T00:41:14.789Z,2.10
2023-01-27T00:41:25.935Z,2.12
2023-01-27T00:41:36.850Z,2.09
2023-01-27T00:41:47.621Z,2.12
2023-01-27T00:41:58.671Z,2.13
2023-01-27T00:42:09.645Z,2.10
2023-01-27T00:42:20.429Z,2.06
2023-01-27T00:42:31.466Z,2.10
2023-01-27T00:42:42.460Z,2.10
2023-01-27T00:42:53.205Z,2.17
2023-01-27T00:43:04.280Z,2.10
2023-01-27T00:43:15.243Z,2.10
2023-01-27T00:43:26.019Z,2.15
2023-01-27T00:43:37.080Z,2.06
2023-01-27T00:43:48.039Z,2.12
2023-01-27T00:43:58.848Z,2.10
2023-01-27T00:44:09.879Z,2.17
2023-01-27T00:44:20.830Z,2.13
2023-01-27T00:44:31.616Z,2.16
2023-01-27T00:44:42.664Z,2.10
2023-01-27T00:44:53.631Z,2.12
2023-01-27T00:45:04.400Z,2.10
2023-01-27T00:45:15.452Z,2.10
2023-01-27T00:45:26.442Z,2.13
2023-01-27T00:45:37.198Z,2.09
2023-01-27T00:45:48.248Z,2.13
2023-01-27T00:45:59.211Z,2.10
2023-01-27T00:46:10.031Z,2.15
2023-01-27T00:46:21.053Z,2.13
2023-01-27T00:46:32.112Z,2.16
2023-01-27T00:46:43.049Z,2.13
2023-01-27T00:46:53.740Z,2.13
2023-01-27T00:47:04.170Z,2.10
2023-01-27T00:47:14.931Z,2.15
2023-01-27T00:47:25.990Z,2.13
2023-01-27T00:47:37.050Z,2.12
2023-01-27T00:47:47.803Z,2.13
2023-01-27T00:47:58.836Z,2.04
2023-01-27T00:48:09.826Z,2.10
2023-01-27T00:48:20.592Z,2.10
2023-01-27T00:48:31.633Z,2.12
2023-01-27T00:48:42.596Z,2.13
2023-01-27T00:48:53.365Z,2.10
2023-01-27T00:49:04.405Z,2.12
2023-01-27T00:49:15.377Z,2.10
2023-01-27T00:49:26.165Z,2.15
2023-01-27T00:49:37.217Z,2.08
2023-01-27T00:49:48.179Z,2.15
2023-01-27T00:49:58.950Z,2.10
2023-01-27T00:50:10.292Z,2.12
2023-01-27T00:50:20.803Z,2.12
2023-01-27T00:50:31.566Z,2.13
2023-01-27T00:50:42.641Z,2.13
2023-01-27T00:50:53.607Z,2.13
2023-01-27T00:51:04.365Z,2.13
2023-01-27T00:51:15.422Z,2.12
2023-01-27T00:51:26.387Z,2.16
2023-01-27T00:51:37.151Z,2.13
2023-01-27T00:51:48.212Z,2.13
2023-01-27T00:51:59.194Z,2.10
2023-01-27T00:52:09.956Z,2.12
2023-01-27T00:52:21.006Z,2.13
2023-01-27T00:52:31.999Z,2.17
2023-01-27T00:52:42.745Z,2.10
2023-01-27T00:52:53.800Z,2.12
2023-01-27T00:53:04.773Z,2.15
2023-01-27T00:53:15.522Z,2.17
2023-01-27T00:53:26.592Z,2.12
2023-01-27T00:53:37.565Z,2.10
2023-01-27T00:53:48.351Z,2.12
2023-01-27T00:53:59.436Z,2.16
2023-01-27T00:54:10.388Z,2.13
2023-01-27T00:54:21.153Z,2.15
2023-01-27T00:54:32.191Z,2.12
2023-01-27T00:54:43.158Z,2.10
2023-01-27T00:54:53.948Z,2.12
2023-01-27T00:55:05.016Z,2.08
2023-01-27T00:55:15.935Z,2.10
2023-01-27T00:55:26.717Z,2.15
2023-01-27T00:55:37.761Z,2.12
2023-01-27T00:55:48.744Z,2.12
2023-01-27T00:55:59.512Z,2.13
2023-01-27T00:56:10.553Z,2.16
2023-01-27T00:56:21.587Z,2.13
2023-01-27T00:56:32.331Z,2.12
2023-01-27T00:56:43.371Z,2.19
2023-01-27T00:56:54.342Z,2.10
2023-01-27T00:57:05.111Z,2.15
2023-01-27T00:57:16.152Z,2.19
2023-01-27T00:57:27.156Z,2.13
2023-01-27T00:57:37.911Z,2.17
2023-01-27T00:57:48.954Z,2.13
2023-01-27T00:57:59.957Z,2.08
2023-01-27T00:58:10.707Z,2.15
2023-01-27T00:58:21.757Z,2.09
2023-01-27T00:58:32.723Z,2.13
2023-01-27T00:58:43.527Z,2.17
2023-01-27T00:58:54.550Z,2.16
2023-01-27T00:59:05.533Z,2.15
2023-01-27T00:59:16.308Z,2.15
2023-01-27T00:59:27.328Z,2.15
2023-01-27T00:59:38.296Z,2.20
2023-01-27T00:59:49.064Z,2.17
2023-01-27T01:00:00.181Z,2.13
2023-01-27T01:00:11.219Z,2.15
2023-01-27T01:00:21.947Z,2.13
2023-01-27T01:00:33.006Z,2.12
2023-01-27T01:00:43.985Z,2.16
2023-01-27T01:00:54.760Z,2.13
2023-01-27T01:01:05.850Z,2.16
2023-01-27T01:01:16.864Z,2.15
2023-01-27T01:01:27.671Z,2.13
2023-01-27T01:01:38.217Z,2.10
2023-01-27T01:01:49.197Z,2.16
2023-01-27T01:02:00.013Z,2.17
2023-01-27T01:02:11.050Z,2.15
2023-01-27T01:02:22.000Z,2.12
2023-01-27T01:02:32.799Z,2.16
2023-01-27T01:02:43.869Z,2.10
2023-01-27T01:02:54.908Z,2.15
2023-01-27T01:03:05.710Z,2.13
2023-01-27T01:03:16.210Z,2.16
2023-01-27T01:03:27.199Z,2.15
2023-01-27T01:03:38.024Z,2.20
2023-01-27T01:03:48.503Z,2.15
2023-01-27T01:03:59.488Z,2.17
2023-01-27T01:04:10.320Z,2.16
2023-01-27T01:04:21.313Z,2.17
2023-01-27T01:04:32.281Z,2.13
2023-01-27T01:04:43.108Z,2.15
2023-01-27T01:04:53.613Z,2.17
2023-01-27T01:05:04.595Z,2.16
2023-01-27T01:05:15.367Z,2.15
2023-01-27T01:05:26.419Z,2.17
2023-01-27T01:05:37.491Z,2.17
2023-01-27T01:05:48.203Z,2.09
2023-01-27T01:05:59.250Z,2.15
2023-01-27T01:06:10.236Z,2.19
2023-01-27T01:06:21.003Z,2.20
2023-01-27T01:06:32.059Z,2.13
2023-01-27T01:06:43.066Z,2.13
2023-01-27T01:06:53.819Z,2.20
2023-01-27T01:07:04.857Z,2.16
2023-01-27T01:07:15.827Z,2.15
2023-01-27T01:07:26.593Z,2.23
2023-01-27T01:07:37.640Z,2.16
2023-01-27T01:07:48.725Z,2.08
2023-01-27T01:07:59.456Z,2.16
2023-01-27T01:08:10.510Z,2.15
2023-01-27T01:08:21.483Z,2.13
2023-01-27T01:08:32.248Z,2.13
2023-01-27T01:08:43.286Z,2.15
2023-01-27T01:08:54.246Z,2.20
2023-01-27T01:09:05.029Z,2.15
2023-01-27T01:09:16.130Z,2.13
2023-01-27T01:09:27.073Z,2.15
2023-01-27T01:09:37.838Z,2.16
2023-01-27T01:09:48.889Z,2.17
2023-01-27T01:09:59.861Z,2.15
2023-01-27T01:10:10.917Z,2.17
2023-01-27T01:10:21.612Z,2.16
2023-01-27T01:10:32.552Z,2.13
2023-01-27T01:10:43.344Z,2.17
2023-01-27T01:10:54.385Z,2.16
2023-01-27T01:11:05.354Z,2.17
2023-01-27T01:11:16.124Z,2.27
2023-01-27T01:11:27.205Z,2.19
2023-01-27T01:11:38.168Z,2.16
2023-01-27T01:11:48.930Z,2.17
2023-01-27T01:11:59.972Z,2.19
2023-01-27T01:12:10.968Z,2.12
2023-01-27T01:12:21.726Z,2.17
2023-01-27T01:12:32.784Z,2.12
2023-01-27T01:12:43.811Z,2.22
2023-01-27T01:12:54.553Z,2.16
2023-01-27T01:13:05.591Z,2.20
2023-01-27T01:13:16.568Z,2.22
2023-01-27T01:13:27.356Z,2.20
2023-01-27T01:13:38.386Z,2.17
2023-01-27T01:13:49.365Z,2.16
2023-01-27T01:14:00.148Z,2.20
2023-01-27T01:14:11.177Z,2.22
2023-01-27T01:14:22.162Z,2.15
2023-01-27T01:14:32.990Z,2.19
2023-01-27T01:14:43.994Z,2.20
2023-01-27T01:14:54.971Z,2.20
2023-01-27T01:15:05.739Z,2.19
2023-01-27T01:15:16.791Z,2.19
2023-01-27T01:15:27.769Z,2.20
2023-01-27T01:15:38.559Z,2.23
2023-01-27T01:15:49.662Z,2.20
2023-01-27T01:16:00.629Z,2.20
2023-01-27T01:16:11.418Z,2.22
2023-01-27T01:16:22.516Z,2.15
2023-01-27T01:16:33.434Z,2.26
2023-01-27T01:16:44.205Z,2.22
2023-01-27T01:16:55.271Z,2.19
2023-01-27T01:17:06.242Z,2.23
2023-01-27T01:17:17.001Z,2.23
2023-01-27T01:17:28.050Z,2.22
2023-01-27T01:17:39.023Z,2.17
2023-01-27T01:17:49.837Z,2.23
2023-01-27T01:18:00.831Z,2.20
2023-01-27T01:18:11.798Z,2.26
2023-01-27T01:18:22.563Z,2.31
2023-01-27T01:18:33.621Z,2.15
2023-01-27T01:18:44.576Z,2.26
2023-01-27T01:18:55.392Z,2.26
2023-01-27T01:19:05.903Z,2.22
2023-01-27T01:19:16.886Z,2.20
2023-01-27T01:19:27.647Z,2.26
2023-01-27T01:19:38.694Z,2.26
2023-01-27T01:19:49.692Z,2.20
2023-01-27T01:20:00.460Z,2.22
2023-01-27T01:20:11.871Z,2.16
2023-01-27T01:20:22.410Z,2.16
2023-01-27T01:20:33.166Z,2.26
2023-01-27T01:20:44.239Z,2.26
2023-01-27T01:20:55.206Z,2.20
2023-01-27T01:21:05.969Z,2.22
2023-01-27T01:21:17.059Z,2.27
2023-01-27T01:21:28.006Z,2.19
2023-01-27T01:21:40.778Z,2.22
2023-01-27T01:21:49.369Z,2.20
2023-01-27T01:22:00.334Z,2.20
2023-01-27T01:22:11.126Z,2.22
2023-01-27T01:22:22.172Z,2.20
2023-01-27T01:22:33.136Z,2.28
2023-01-27T01:22:43.917Z,2.20
2023-01-27T01:22:54.989Z,2.17
2023-01-27T01:23:05.960Z,2.19
2023-01-27T01:23:16.706Z,2.28
2023-01-27T01:23:27.754Z,2.17
2023-01-27T01:23:38.738Z,2.27
2023-01-27T01:23:49.643Z,2.22
2023-01-27T01:24:00.285Z,2.26
2023-01-27T01:24:11.285Z,2.26
2023-01-27T01:24:22.044Z,2.26
2023-01-27T01:24:33.136Z,2.22
2023-01-27T01:24:44.070Z,2.20
2023-01-27T01:24:54.846Z,2.28
2023-01-27T01:25:05.888Z,2.28
2023-01-27T01:25:16.863Z,2.26
2023-01-27T01:25:27.654Z,2.23
2023-01-27T01:25:38.686Z,2.26
2023-01-27T01:25:49.725Z,2.26
2023-01-27T01:26:00.475Z,2.31
2023-01-27T01:26:11.527Z,2.23
2023-01-27T01:26:22.503Z,2.22
2023-01-27T01:26:33.261Z,2.22
2023-01-27T01:26:44.309Z,2.22
2023-01-27T01:26:55.298Z,2.19
2023-01-27T01:27:06.049Z,2.23
2023-01-27T01:27:17.102Z,2.19
2023-01-27T01:27:28.067Z,2.30
2023-01-27T01:27:38.848Z,2.28
2023-01-27T01:27:49.897Z,2.20
2023-01-27T01:28:00.861Z,2.20
2023-01-27T01:28:11.622Z,2.26
2023-01-27T01:28:22.693Z,2.22
2023-01-27T01:28:33.681Z,2.20
2023-01-27T01:28:44.438Z,2.19
2023-01-27T01:28:55.489Z,2.19
2023-01-27T01:29:06.463Z,2.17
2023-01-27T01:29:17.224Z,2.26
2023-01-27T01:29:28.295Z,2.23
2023-01-27T01:29:39.251Z,2.26
2023-01-27T01:29:50.051Z,2.22
2023-01-27T01:30:01.168Z,2.22
2023-01-27T01:30:12.672Z,2.20
2023-01-27T01:30:23.018Z,2.22
2023-01-27T01:30:34.073Z,2.20
2023-01-27T01:30:45.084Z,2.22
2023-01-27T01:30:56.028Z,2.22
2023-01-27T01:31:06.699Z,2.20
2023-01-27T01:31:17.236Z,2.22
2023-01-27T01:31:28.030Z,2.19
2023-01-27T01:31:39.179Z,2.22
2023-01-27T01:31:49.629Z,2.22
2023-01-27T01:32:00.393Z,2.23
2023-01-27T01:32:11.439Z,2.20
2023-01-27T01:32:22.408Z,2.15
2023-01-27T01:32:33.175Z,2.26
2023-01-27T01:32:44.255Z,2.19
2023-01-27T01:32:55.250Z,2.23
2023-01-27T01:33:05.992Z,2.19
2023-01-27T01:33:17.043Z,2.20
2023-01-27T01:33:28.011Z,2.17
2023-01-27T01:33:38.804Z,2.23
2023-01-27T01:33:49.857Z,2.20
2023-01-27T01:34:00.805Z,2.23
2023-01-27T01:34:11.584Z,2.19
2023-01-27T01:34:22.649Z,2.19
2023-01-27T01:34:33.603Z,2.20
2023-01-27T01:34:44.369Z,2.19
2023-01-27T01:34:55.414Z,2.16
2023-01-27T01:35:06.385Z,2.17
2023-01-27T01:35:17.154Z,2.16
2023-01-27T01:35:28.235Z,2.20
2023-01-27T01:35:39.207Z,2.15
2023-01-27T01:35:49.970Z,2.20
2023-01-27T01:36:01.016Z,2.16
2023-01-27T01:36:12.007Z,2.15
2023-01-27T01:36:22.770Z,2.15
2023-01-27T01:36:33.818Z,2.13
2023-01-27T01:36:44.808Z,2.13
2023-01-27T01:36:55.573Z,2.15
2023-01-27T01:37:06.676Z,2.16
2023-01-27T01:37:17.591Z,2.13
2023-01-27T01:37:28.361Z,2.12
2023-01-27T01:37:39.412Z,2.09
2023-01-27T01:37:50.383Z,2.10
2023-01-27T01:38:01.145Z,2.10
2023-01-27T01:38:12.206Z,2.13
2023-01-27T01:38:23.173Z,2.12
2023-01-27T01:38:33.978Z,2.13
2023-01-27T01:38:45.019Z,2.13
2023-01-27T01:38:55.980Z,2.15
2023-01-27T01:39:06.769Z,2.15
2023-01-27T01:39:17.806Z,2.13
2023-01-27T01:39:28.779Z,2.16
2023-01-27T01:39:39.556Z,2.08
2023-01-27T01:39:50.626Z,2.13
2023-01-27T01:40:01.583Z,2.10
2023-01-27T01:40:12.738Z,2.12
2023-01-27T01:40:25.593Z,2.09
2023-01-27T01:40:33.994Z,2.06
2023-01-27T01:40:44.841Z,2.10
2023-01-27T01:40:55.834Z,2.06
2023-01-27T01:41:06.817Z,2.04
2023-01-27T01:41:17.580Z,2.12
2023-01-27T01:41:28.629Z,2.13
2023-01-27T01:41:39.620Z,2.12
2023-01-27T01:41:50.370Z,2.09
2023-01-27T01:42:01.448Z,2.10
2023-01-27T01:42:12.433Z,2.08
2023-01-27T01:42:23.191Z,2.10
2023-01-27T01:42:34.247Z,2.12
2023-01-27T01:42:45.245Z,2.06
2023-01-27T01:42:55.983Z,2.12
2023-01-27T01:43:07.021Z,2.10
2023-01-27T01:43:18.018Z,2.08
2023-01-27T01:43:28.779Z,2.12
2023-01-27T01:43:39.815Z,2.08
2023-01-27T01:43:50.930Z,2.08
2023-01-27T01:44:01.626Z,2.15
2023-01-27T01:44:12.674Z,2.10
2023-01-27T01:44:23.673Z,2.02
2023-01-27T01:44:34.459Z,2.10
2023-01-27T01:44:45.483Z,2.09
2023-01-27T01:44:56.455Z,2.10
2023-01-27T01:45:07.233Z,2.12
2023-01-27T01:45:18.275Z,2.13
2023-01-27T01:45:29.250Z,2.12
2023-01-27T01:45:40.006Z,2.10
2023-01-27T01:45:51.053Z,2.06
2023-01-27T01:46:02.026Z,2.10
2023-01-27T01:46:12.958Z,2.08
2023-01-27T01:46:23.635Z,2.08
2023-01-27T01:46:34.615Z,2.08
2023-01-27T01:46:45.409Z,2.06
2023-01-27T01:46:56.573Z,2.13
2023-01-27T01:47:06.987Z,2.10
2023-01-27T01:47:17.764Z,2.02
2023-01-27T01:47:28.843Z,2.10
2023-01-27T01:47:39.791Z,2.02
2023-01-27T01:47:50.557Z,2.10
2023-01-27T01:48:01.634Z,2.06
2023-01-27T01:48:12.579Z,2.09
2023-01-27T01:48:23.346Z,2.13
2023-01-27T01:48:34.455Z,2.08
2023-01-27T01:48:45.385Z,2.04
2023-01-27T01:48:56.144Z,2.06
2023-01-27T01:49:07.197Z,2.09
2023-01-27T01:49:18.184Z,2.02
2023-01-27T01:49:28.937Z,2.08
2023-01-27T01:49:40.026Z,2.02
2023-01-27T01:49:50.979Z,2.04
2023-01-27T01:50:01.745Z,2.04
2023-01-27T01:50:13.171Z,2.02
2023-01-27T01:50:23.735Z,2.02
2023-01-27T01:50:34.547Z,2.04
2023-01-27T01:50:45.560Z,2.04
2023-01-27T01:50:56.521Z,2.06
2023-01-27T01:51:07.324Z,2.01
2023-01-27T01:51:18.373Z,2.04
2023-01-27T01:51:29.376Z,2.02
2023-01-27T01:51:40.149Z,2.06
2023-01-27T01:51:51.196Z,1.99
2023-01-27T01:52:02.189Z,1.99
2023-01-27T01:52:12.948Z,2.04
2023-01-27T01:52:23.990Z,2.01
2023-01-27T01:52:35.025Z,2.01
2023-01-27T01:52:45.753Z,2.04
2023-01-27T01:52:56.795Z,1.94
2023-01-27T01:53:07.782Z,1.98
2023-01-27T01:53:18.561Z,1.99
2023-01-27T01:53:29.597Z,2.08
2023-01-27T01:53:40.565Z,1.94
2023-01-27T01:53:51.356Z,1.99
2023-01-27T01:54:02.397Z,2.01
2023-01-27T01:54:13.351Z,2.01
2023-01-27T01:54:24.129Z,1.99
2023-01-27T01:54:35.188Z,2.01
2023-01-27T01:54:46.146Z,1.97
2023-01-27T01:54:56.947Z,2.01
2023-01-27T01:55:07.978Z,1.93
2023-01-27T01:55:18.949Z,1.98
2023-01-27T01:55:29.718Z,1.98
2023-01-27T01:55:40.772Z,1.97
2023-01-27T01:55:51.752Z,1.98
2023-01-27T01:56:02.515Z,2.02
2023-01-27T01:56:13.566Z,1.94
2023-01-27T01:56:24.569Z,1.93
2023-01-27T01:56:35.333Z,1.97
2023-01-27T01:56:46.373Z,1.97
2023-01-27T01:56:57.360Z,1.98
2023-01-27T01:57:08.123Z,1.98
2023-01-27T01:57:20.751Z,1.99
2023-01-27T01:57:29.955Z,1.94
2023-01-27T01:57:40.699Z,1.98
2023-01-27T01:57:51.746Z,1.97
2023-01-27T01:58:02.722Z,2.01
2023-01-27T01:58:13.490Z,2.01
2023-01-27T01:58:24.541Z,1.97
2023-01-27T01:58:35.500Z,2.06
2023-01-27T01:58:46.292Z,2.02
2023-01-27T01:58:57.327Z,1.99
2023-01-27T01:59:08.289Z,1.98
2023-01-27T01:59:19.058Z,1.94
2023-01-27T01:59:30.099Z,1.93
2023-01-27T01:59:41.091Z,1.99
2023-01-27T01:59:51.850Z,1.91
2023-01-27T02:00:02.943Z,2.02
2023-01-27T02:00:14.352Z,2.04
2023-01-27T02:00:24.598Z,1.97
2023-01-27T02:00:35.668Z,1.93
2023-01-27T02:00:46.642Z,2.02
2023-01-27T02:00:57.419Z,2.02
2023-01-27T02:01:08.474Z,1.94
2023-01-27T02:01:19.497Z,1.99
2023-01-27T02:01:30.271Z,1.99
2023-01-27T02:01:40.870Z,2.01
2023-01-27T02:01:51.818Z,1.94
2023-01-27T02:02:02.630Z,1.93
2023-01-27T02:02:13.773Z,2.01
2023-01-27T02:02:26.052Z,1.98
2023-01-27T02:02:35.091Z,1.93
2023-01-27T02:02:46.149Z,2.02
2023-01-27T02:02:57.178Z,2.01
2023-01-27T02:03:08.020Z,2.02
2023-01-27T02:03:19.100Z,2.01
2023-01-27T02:03:30.056Z,1.99
2023-01-27T02:03:40.828Z,1.97
2023-01-27T02:03:51.934Z,1.93
2023-01-27T02:04:02.865Z,1.99
2023-01-27T02:04:13.635Z,2.04
2023-01-27T02:04:24.676Z,2.01
2023-01-27T02:04:35.651Z,2.01
2023-01-27T02:04:46.411Z,2.08
2023-01-27T02:04:57.473Z,2.04
2023-01-27T02:05:08.440Z,2.01
2023-01-27T02:05:19.200Z,2.01
2023-01-27T02:05:30.244Z,1.99
2023-01-27T02:05:41.217Z,1.93
2023-01-27T02:05:51.992Z,2.08
2023-01-27T02:06:03.060Z,2.08
2023-01-27T02:06:13.624Z,2.02
2023-01-27T02:06:24.370Z,1.98
2023-01-27T02:06:35.445Z,2.09
2023-01-27T02:06:46.404Z,2.04
2023-01-27T02:06:57.193Z,2.04
2023-01-27T02:07:08.237Z,2.08
2023-01-27T02:07:19.223Z,2.02
2023-01-27T02:07:30.022Z,2.06
2023-01-27T02:07:41.100Z,2.08
2023-01-27T02:07:52.053Z,2.04
2023-01-27T02:08:02.811Z,2.04
2023-01-27T02:08:13.880Z,2.08
2023-01-27T02:08:24.827Z,2.06
2023-01-27T02:08:35.612Z,2.12
2023-01-27T02:08:46.660Z,2.12
2023-01-27T02:08:57.695Z,2.06
2023-01-27T02:09:08.427Z,2.08
2023-01-27T02:09:19.492Z,2.06
2023-01-27T02:09:30.458Z,2.08
2023-01-27T02:09:41.232Z,2.02
2023-01-27T02:09:52.292Z,2.04
2023-01-27T02:10:03.293Z,2.04
2023-01-27T02:10:14.465Z,2.04
2023-01-27T02:10:24.665Z,2.02
2023-01-27T02:10:35.652Z,2.06
2023-01-27T02:10:46.485Z,2.12
2023-01-27T02:10:57.497Z,2.12
2023-01-27T02:11:08.460Z,2.08
2023-01-27T02:11:19.227Z,2.08
2023-01-27T02:11:30.285Z,2.09
2023-01-27T02:11:41.260Z,2.08
2023-01-27T02:11:52.045Z,2.08
2023-01-27T02:12:03.155Z,2.09
2023-01-27T02:12:14.066Z,2.12
2023-01-27T02:12:24.854Z,2.15
2023-01-27T02:12:35.909Z,2.10
2023-01-27T02:12:46.870Z,2.08
2023-01-27T02:12:57.649Z,2.10
2023-01-27T02:13:08.743Z,2.10
2023-01-27T02:13:19.713Z,2.02
2023-01-27T02:13:30.465Z,2.06
2023-01-27T02:13:41.503Z,2.08
2023-01-27T02:13:52.469Z,2.08
2023-01-27T02:14:03.262Z,2.09
2023-01-27T02:14:14.290Z,2.08
2023-01-27T02:14:25.265Z,2.12
2023-01-27T02:14:36.021Z,2.08
2023-01-27T02:14:47.154Z,2.09
2023-01-27T02:14:58.095Z,2.10
2023-01-27T02:15:08.865Z,2.08
2023-01-27T02:15:19.908Z,2.09
2023-01-27T02:15:30.874Z,2.01
2023-01-27T02:15:41.688Z,2.06
2023-01-27T02:15:52.724Z,2.15
2023-01-27T02:16:03.697Z,2.12
2023-01-27T02:16:14.475Z,2.13
2023-01-27T02:16:25.530Z,2.13
2023-01-27T02:16:36.561Z,2.13
2023-01-27T02:16:47.358Z,2.13
2023-01-27T02:16:58.457Z,2.10
2023-01-27T02:17:09.422Z,2.13
2023-01-27T02:17:20.172Z,2.10
2023-01-27T02:17:31.230Z,2.13
2023-01-27T02:17:42.222Z,2.09
2023-01-27T02:17:52.999Z,2.12
2023-01-27T02:18:04.047Z,2.10
2023-01-27T02:18:15.022Z,2.10
2023-01-27T02:18:25.797Z,2.09
2023-01-27T02:18:36.834Z,2.13
2023-01-27T02:18:47.818Z,2.12
2023-01-27T02:18:58.607Z,2.13
2023-01-27T02:19:09.630Z,2.15
2023-01-27T02:19:20.601Z,2.09
2023-01-27T02:19:31.406Z,2.13
2023-01-27T02:19:42.439Z,2.12
2023-01-27T02:19:53.407Z,2.04
2023-01-27T02:20:04.178Z,2.12
2023-01-27T02:20:15.227Z,2.15
2023-01-27T02:20:26.204Z,2.12
2023-01-27T02:20:36.983Z,2.13
2023-01-27T02:20:48.034Z,2.10
2023-01-27T02:20:59.021Z,2.12
2023-01-27T02:21:09.785Z,2.10
2023-01-27T02:21:20.819Z,2.12
2023-01-27T02:21:31.797Z,2.08
2023-01-27T02:21:42.565Z,2.10
2023-01-27T02:21:53.607Z,2.12
2023-01-27T02:22:04.595Z,2.16
2023-01-27T02:22:15.391Z,2.13
2023-01-27T02:22:26.436Z,2.09
2023-01-27T02:22:37.409Z,2.06
2023-01-27T02:22:48.174Z,2.19
2023-01-27T02:22:59.223Z,2.12
2023-01-27T02:23:10.210Z,2.15
2023-01-27T02:23:20.970Z,2.10
2023-01-27T02:23:32.016Z,2.12
2023-01-27T02:23:42.990Z,2.12
2023-01-27T02:23:53.756Z,2.10
2023-01-27T02:24:04.813Z,2.12
2023-01-27T02:24:15.781Z,2.09
2023-01-27T02:24:26.616Z,2.16
2023-01-27T02:24:37.121Z,2.12
2023-01-27T02:24:48.112Z,2.13
2023-01-27T02:24:58.914Z,2.15
2023-01-27T02:25:09.971Z,2.12
2023-01-27T02:25:20.899Z,2.13